Latest Weather Observations for Ernabella/Pukatja

IDD60801

Issued at 1:01 pm CST Tuesday 31 May 2016 (issued every 30 minutes, with the page automatically refreshed every 10 minutes)

About weather observations | Map of weather stations | Latest weather observations for NT | Other Formats
Station Details ID: 016097 Name: PUKATJA Lat: -26.26 Lon: 132.18 Height: 703.2 m
Data from the previous 72 hours. | See also: Recent months at Ernabella/Pukatja
Date/Time
CST
Temp
°C
App
Temp
°C
Dew
Point
Rel
Hum
%
Delta-T
°C
Wind Press
QNH
hPa
Press
MSL
hPa
Rain
since 9 am
mm
Dir
 
Spd
km/h
Gust
km/h
Spd
kts
Gust
kts
31/01:00pm 19.9 18.3 12.7 63 4.2 ENE 13 19 7 10 1020.9 - 0.0
31/12:30pm 19.4 18.2 12.7 65 3.9 ENE 11 17 6 9 1021.3 - 0.0
31/12:00pm 18.9 18.1 12.9 68 3.5 NE 9 15 5 8 1021.8 1020.2 0.0
31/11:30am 18.3 17.1 12.7 70 3.2 ENE 11 15 6 8 1022.2 - 0.0
31/11:00am 17.7 17.7 14.2 80 2.1 ENE 7 13 4 7 1022.5 - 0.0
31/10:30am 17.4 17.5 14.5 83 1.7 ENE 7 11 4 6 1022.8 - 0.0
31/10:00am 16.3 16.5 14.7 90 0.9 ENE 7 9 4 5 1023.1 - 0.0
31/09:30am 14.7 16.2 14.7 100 0.0 CALM 0 0 0 0 1022.8 - 0.0
31/09:00am 13.4 13.3 13.4 100 0.0 ENE 6 7 3 4 1022.4 1020.9 0.6
31/08:30am 12.6 12.3 12.6 100 0.0 E 6 7 3 4 1022.1 - 0.6
31/08:00am 11.7 10.9 11.7 100 0.0 NNE 7 9 4 5 1021.9 - 0.6
31/07:30am 11.5 10.6 11.5 100 0.0 E 7 9 4 5 1021.6 - 0.4
31/07:00am 11.6 10.4 11.6 100 0.0 E 9 11 5 6 1021.2 - 0.4
31/06:30am 11.7 10.5 11.7 100 0.0 E 9 11 5 6 1021.0 - 0.4
31/06:00am 12.5 11.6 12.5 100 0.0 E 9 11 5 6 1020.7 1019.1 0.4
31/05:30am 12.1 11.0 12.1 100 0.0 E 9 11 5 6 1020.4 - 0.4
31/05:00am 12.9 12.7 12.9 100 0.0 ESE 6 7 3 4 1020.5 - 0.4
31/04:30am 12.8 12.3 12.8 100 0.0 E 7 7 4 4 1020.5 - 0.4
31/04:00am 12.8 13.6 12.6 99 0.1 CALM 0 4 0 2 1020.5 - 0.4
31/03:30am 13.3 14.2 13.0 98 0.2 CALM 0 0 0 0 1020.4 - 0.4
31/03:00am 13.7 14.8 13.4 98 0.2 CALM 0 0 0 0 1020.5 1018.9 0.4
31/02:30am 13.8 13.8 13.5 98 0.2 E 6 7 3 4 1020.7 - 0.4
31/02:00am 13.6 13.3 13.3 98 0.2 ENE 7 11 4 6 1020.7 - 0.4
31/01:30am 13.5 13.4 13.2 98 0.2 ENE 6 7 3 4 1020.7 - 0.4
31/01:00am 14.0 13.8 13.7 98 0.2 N 7 13 4 7 1020.7 - 0.4
31/12:30am 14.5 15.0 13.9 96 0.3 NE 4 9 2 5 1020.6 - 0.4
31/12:00am 13.9 13.7 13.6 98 0.2 N 7 9 4 5 1020.9 1019.3 0.4
 
Date/Time
CST
Temp
°C
App
Temp
°C
Dew
Point
Rel
Hum
%
Delta-T
°C
Wind Press
QNH
hPa
Press
MSL
hPa
Rain
since 9 am
mm
Dir
 
Spd
km/h
Gust
km/h
Spd
kts
Gust
kts
30/11:30pm 13.4 13.1 13.2 99 0.1 ESE 7 7 4 4 1021.0 - 0.4
30/11:00pm 13.8 13.6 13.5 98 0.2 WNW 7 9 4 5 1020.8 - 0.4
30/10:30pm 14.5 14.7 14.2 98 0.2 NNW 6 9 3 5 1020.9 - 0.4
30/10:00pm 14.1 14.0 13.8 98 0.2 NNE 7 9 4 5 1020.9 - 0.4
30/09:30pm 14.7 14.8 14.4 98 0.2 NNW 7 9 4 5 1020.8 - 0.4
30/09:00pm 14.8 15.5 14.5 98 0.2 NNW 4 7 2 4 1020.7 1019.1 0.4
30/08:30pm 15.3 14.5 15.0 98 0.2 N 13 15 7 8 1020.4 - 0.4
30/08:00pm 15.5 15.8 14.9 96 0.4 N 7 9 4 5 1020.3 - 0.4
30/07:30pm 15.9 15.0 14.9 94 0.6 N 13 19 7 10 1019.9 - 0.4
30/07:00pm 15.3 15.6 14.5 95 0.5 ENE 6 9 3 5 1019.6 - 0.4
30/06:30pm 16.0 16.1 14.4 90 0.9 N 7 13 4 7 1019.1 - 0.4
30/06:00pm 16.2 15.8 14.0 87 1.3 NNE 9 11 5 6 1018.9 1017.3 0.4
30/05:30pm 17.1 17.0 14.0 82 1.8 N 7 9 4 5 1018.8 - 0.4
30/05:00pm 17.3 17.2 13.8 80 2.1 N 7 11 4 6 1018.6 - 0.4
30/04:30pm 17.5 17.1 14.0 80 2.1 N 9 13 5 7 1018.5 - 0.4
30/04:00pm 17.3 16.5 14.0 81 1.9 N 11 13 6 7 1018.5 - 0.4
30/03:30pm 17.1 15.7 13.4 79 2.2 N 13 17 7 9 1018.2 - 0.4
30/03:00pm 17.0 16.5 13.9 82 1.8 N 9 13 5 7 1018.1 1016.5 0.4
30/02:30pm 17.6 15.9 12.5 72 2.9 N 13 17 7 9 1018.2 - 0.0
30/02:00pm 17.7 16.1 12.8 73 2.8 NNW 13 19 7 10 1018.5 - 0.0
30/01:30pm 18.0 16.8 12.9 72 3.0 N 11 15 6 8 1018.3 - 0.0
30/01:00pm 17.6 16.6 12.3 71 3.0 NNE 9 15 5 8 1018.5 - 0.0
30/12:30pm 17.1 15.7 12.2 73 2.8 NNE 11 17 6 9 1019.0 - 0.0
30/12:00pm 17.1 15.7 12.2 73 2.8 NNE 11 17 6 9 1019.6 1018.0 0.0
30/11:30am 16.9 15.6 12.4 75 2.6 ENE 11 15 6 8 1019.9 - 0.0
30/11:00am 16.4 14.9 11.8 74 2.6 ENE 11 15 6 8 1020.2 - 0.0
30/10:30am 16.8 15.2 11.7 72 2.9 NE 11 15 6 8 1020.4 - 0.0
30/10:00am 16.5 16.5 12.3 76 2.4 ENE 4 7 2 4 1020.5 - 0.0
30/09:30am 16.1 16.8 12.3 78 2.2 CALM 0 7 0 4 1020.5 - 0.0
30/09:00am 14.1 14.7 13.1 94 0.6 SSE 2 6 1 3 1020.3 1018.7 0.6
30/08:30am 13.3 14.2 13.0 98 0.2 CALM 0 6 0 3 1020.2 - 0.6
30/08:00am 12.4 11.9 12.2 99 0.1 NE 6 7 3 4 1019.7 - 0.6
30/07:30am 12.5 12.4 12.2 98 0.2 ESE 4 7 2 4 1019.6 - 0.6
30/07:00am 12.4 11.3 12.1 98 0.2 E 9 11 5 6 1019.3 - 0.6
30/06:30am 12.8 12.4 12.5 98 0.2 WNW 6 13 3 7 1019.2 - 0.6
30/06:00am 13.1 11.6 11.8 92 0.7 W 11 15 6 8 1018.9 1017.3 0.4
30/05:30am 12.7 11.6 10.6 87 1.1 NNW 7 9 4 5 1018.1 - 0.0
30/05:00am 13.3 11.5 10.8 85 1.4 SW 11 13 6 7 1017.9 - 0.0
30/04:30am 12.1 11.8 10.0 87 1.1 W 2 7 1 4 1018.2 - 0.0
30/04:00am 12.5 11.8 10.2 86 1.2 WSW 4 6 2 3 1017.9 - 0.0
30/03:30am 13.7 12.7 10.9 83 1.5 W 7 13 4 7 1018.0 - 0.0
30/03:00am 14.4 12.3 11.0 80 1.9 W 13 19 7 10 1018.3 1016.7 0.0
30/02:30am 15.3 10.5 10.3 72 2.7 SW 26 35 14 19 1018.2 - 0.0
30/02:17am 16.1 10.8 10.0 67 3.3 SW 28 37 15 20 1018.3 - 0.0
30/02:00am 15.6 12.8 8.6 63 3.7 W 13 19 7 10 1018.6 - 0.0
30/01:30am 16.8 13.6 8.5 58 4.4 WSW 15 20 8 11 1018.5 - 0.0
30/01:00am 14.2 11.5 7.3 63 3.5 WSW 11 17 6 9 1018.6 - 0.0
30/12:30am 13.6 11.2 7.2 65 3.2 W 9 11 5 6 1018.6 - 0.0
30/12:00am 13.2 11.4 7.0 66 3.1 SW 6 7 3 4 1018.7 1017.1 0.0
 
Date/Time
CST
Temp
°C
App
Temp
°C
Dew
Point
Rel
Hum
%
Delta-T
°C
Wind Press
QNH
hPa
Press
MSL
hPa
Rain
since 9 am
mm
Dir
 
Spd
km/h
Gust
km/h
Spd
kts
Gust
kts
29/11:30pm 13.0 11.2 7.0 67 3.0 NW 6 9 3 5 1018.9 - 0.0
29/11:00pm 12.0 10.4 6.3 68 2.8 ENE 4 7 2 4 1018.9 - 0.0
29/10:30pm 12.8 12.0 6.4 65 3.2 CALM 0 6 0 3 1018.9 - 0.0
29/10:00pm 12.5 11.3 6.3 66 3.1 S 2 9 1 5 1018.6 - 0.0
29/09:30pm 12.6 10.0 6.0 64 3.2 E 9 9 5 5 1018.6 - 0.0
29/09:00pm 14.2 12.0 6.3 59 3.9 E 7 9 4 5 1018.7 1017.1 0.0
29/08:30pm 13.7 11.6 5.6 58 4.0 E 6 7 3 4 1018.5 - 0.0
29/08:00pm 15.9 13.8 5.8 51 5.0 ENE 6 6 3 3 1018.3 - 0.0
29/07:30pm 15.7 13.5 6.2 53 4.8 E 7 9 4 5 1018.1 - 0.0
29/07:00pm 16.4 14.2 6.0 50 5.2 NE 7 7 4 4 1017.9 - 0.0
29/06:30pm 17.4 15.3 5.7 46 5.9 N 6 9 3 5 1017.6 - 0.0
29/06:00pm 19.3 17.0 5.7 41 6.9 N 7 9 4 5 1017.3 1015.6 0.0
29/05:30pm 21.5 18.4 5.4 35 8.3 NW 11 17 6 9 1017.2 - 0.0
29/05:00pm 22.4 18.5 5.4 33 8.8 WNW 15 20 8 11 1017.0 - 0.0
29/04:30pm 22.3 18.5 5.7 34 8.6 WNW 15 24 8 13 1016.8 - 0.0
29/04:00pm 22.5 17.9 5.4 33 8.9 NW 19 26 10 14 1016.7 - 0.0
29/03:30pm 22.5 17.9 5.4 33 8.9 WNW 19 26 10 14 1016.7 - 0.0
29/03:00pm 22.7 17.9 4.7 31 9.2 WNW 19 26 10 14 1016.7 1015.1 0.0
29/02:30pm 22.4 18.2 5.8 34 8.7 NW 17 28 9 15 1016.8 - 0.0
29/02:00pm 22.3 17.6 5.3 33 8.8 WNW 19 24 10 13 1017.2 - 0.0
29/01:30pm 22.0 17.2 5.8 35 8.4 W 20 28 11 15 1017.5 - 0.0
29/01:00pm 21.6 17.0 6.3 37 8.0 WNW 20 28 11 15 1017.9 - 0.0
29/12:30pm 21.5 17.3 7.3 40 7.6 NW 19 24 10 13 1018.2 - 0.0
29/12:00pm 21.1 17.5 8.4 44 6.9 WNW 17 26 9 14 1018.6 1016.9 0.0
29/11:30am 20.4 16.6 5.6 38 7.6 NNW 15 22 8 12 1019.1 - 0.0
29/11:00am 20.2 17.0 5.1 37 7.7 N 11 19 6 10 1019.5 - 0.0
29/10:30am 18.6 16.1 4.8 40 6.9 NNE 7 13 4 7 1019.6 - 0.0
29/10:00am 18.0 16.0 4.2 40 6.8 E 4 7 2 4 1019.6 - 0.0
29/09:30am 16.6 14.2 4.3 44 6.0 NE 6 7 3 4 1019.6 - 0.0
29/09:00am 14.9 13.6 4.0 48 5.2 CALM 0 0 0 0 1019.6 1018.0 0.0
29/08:30am 13.3 11.2 3.9 53 4.4 E 4 9 2 5 1019.3 - 0.0
29/08:00am 8.3 4.8 3.6 72 2.1 E 11 13 6 7 1019.0 - 0.0
29/07:30am 9.1 6.2 2.7 64 2.8 E 7 9 4 5 1018.8 - 0.0
29/07:00am 7.8 4.8 2.3 68 2.4 ENE 7 11 4 6 1018.8 - 0.0
29/06:30am 9.8 7.0 3.3 64 2.9 N 7 13 4 7 1018.6 - 0.0
29/06:00am 8.2 5.4 2.2 66 2.6 NNW 6 9 3 5 1018.2 1016.6 0.0
29/05:30am 9.0 7.0 2.3 63 2.9 ENE 2 9 1 5 1018.0 - 0.0
29/05:00am 9.2 5.5 2.1 61 3.1 ENE 11 13 6 7 1017.7 - 0.0
29/04:30am 8.5 4.7 1.9 63 2.9 E 11 13 6 7 1017.8 - 0.0
29/04:00am 9.1 5.7 1.8 60 3.2 E 9 11 5 6 1017.7 - 0.0
29/03:30am 9.3 6.3 1.9 60 3.2 E 7 11 4 6 1017.8 - 0.0
29/03:00am 9.1 6.0 1.5 59 3.3 E 7 9 4 5 1018.0 1016.4 0.0
29/02:30am 9.4 6.0 1.8 59 3.3 E 9 11 5 6 1018.5 - 0.0
29/02:00am 8.9 5.8 1.3 59 3.3 ENE 7 11 4 6 1018.5 - 0.0
29/01:30am 10.2 7.7 1.8 56 3.7 SE 4 6 2 3 1018.7 - 0.0
29/01:00am 9.4 7.7 1.6 58 3.4 CALM 0 0 0 0 1018.7 - 0.0
29/12:30am 10.1 8.3 1.5 55 3.7 CALM 0 4 0 2 1018.6 - 0.0
29/12:00am 10.1 7.2 1.7 56 3.7 E 6 7 3 4 1018.7 1017.1 0.0
 
Date/Time
CST
Temp
°C
App
Temp
°C
Dew
Point
Rel
Hum
%
Delta-T
°C
Wind Press
QNH
hPa
Press
MSL
hPa
Rain
since 9 am
mm
Dir
 
Spd
km/h
Gust
km/h
Spd
kts
Gust
kts
28/11:30pm 10.5 7.4 1.6 54 3.9 ENE 7 13 4 7 1018.9 - 0.0
28/11:00pm 10.1 7.0 1.5 55 3.7 ENE 7 9 4 5 1019.1 - 0.0
28/10:30pm 10.9 7.9 1.7 53 4.1 ESE 7 9 4 5 1019.2 - 0.0
28/10:00pm 10.5 7.6 1.6 54 3.9 ENE 6 7 3 4 1019.4 - 0.0
28/09:30pm 10.5 7.0 1.3 53 4.0 NNE 9 11 5 6 1019.5 - 0.0
28/09:00pm 11.1 7.7 1.6 52 4.2 E 9 11 5 6 1019.6 1018.0 0.0
28/08:30pm 11.0 8.9 1.5 52 4.2 NNE 2 7 1 4 1019.7 - 0.0
28/08:00pm 10.7 8.9 1.3 52 4.1 CALM 0 0 0 0 1019.6 - 0.0
28/07:30pm 11.3 7.8 1.3 50 4.4 N 9 11 5 6 1019.5 - 0.0
28/07:00pm 13.3 9.8 1.0 43 5.4 N 9 9 5 5 1019.3 - 0.0
28/06:30pm 14.7 11.1 0.9 39 6.2 N 9 15 5 8 1018.9 - 0.0
28/06:00pm 14.9 11.8 1.4 40 6.1 N 7 9 4 5 1019.0 1017.4 0.0
28/05:30pm 16.6 12.8 1.5 36 7.0 N 11 17 6 9 1018.7 - 0.0
28/05:00pm 16.7 11.7 1.2 35 7.1 N 17 22 9 12 1018.5 - 0.0
28/04:30pm 17.3 12.8 2.1 36 7.1 N 15 22 8 12 1018.2 - 0.0
28/04:00pm 17.3 12.1 2.5 37 7.0 N 19 26 10 14 1017.8 - 0.0
28/03:30pm 17.3 12.9 2.5 37 7.0 NNE 15 22 8 12 1018.1 - 0.0
28/03:00pm 17.0 13.3 2.6 38 6.8 N 11 15 6 8 1018.1 1016.5 0.0
28/02:30pm 17.4 13.7 2.6 37 7.0 NE 11 17 6 9 1018.5 - 0.0
28/02:00pm 17.9 13.9 3.0 37 7.1 NE 13 22 7 12 1018.9 - 0.0
28/01:30pm 17.2 13.6 3.1 39 6.7 NNE 11 15 6 8 1019.3 - 0.0

Other Formats:

Comma delimited format used in spreadsheet applications
http://www.bom.gov.au/fwo/IDD60801/IDD60801.94474.axf

JavaScript Object Notation format (JSON) in row-major order
http://www.bom.gov.au/fwo/IDD60801/IDD60801.94474.json